Time;durP1;ratioP1;P1;durP2;ratioP2;P2;SDS_P1;SDS_P2;PMS_P1;PMS_P2;Temp;Humidity;BMP_temperature;BMP_pressure;BME280_temperature;BME280_humidity;BME280_pressure;Samples;Min_cycle;Max_cycle;Signal;HPM_P1;HPM_P2
2022/04/14 00:01:13;;;;;;;26.40;13.40;;;13.50;99.90;;;;;;4975125;28;20637;-83
2022/04/14 00:03:40;;;;;;;23.13;12.87;;;13.60;99.90;;;;;;4975804;28;20267;-82
2022/04/14 00:06:06;;;;;;;25.57;12.63;;;13.50;99.90;;;;;;4975466;28;20232;-82
2022/04/14 00:08:32;;;;;;;25.13;12.57;;;13.60;99.90;;;;;;4975707;28;20727;-82
2022/04/14 00:10:58;;;;;;;22.17;12.57;;;13.50;99.90;;;;;;4975248;28;20286;-82
2022/04/14 00:13:24;;;;;;;32.80;14.03;;;13.50;99.90;;;;;;4975702;28;20179;-83
2022/04/14 00:15:49;;;;;;;31.13;14.50;;;13.30;99.90;;;;;;4975259;28;20257;-83
2022/04/14 00:18:15;;;;;;;23.63;13.13;;;13.30;99.90;;;;;;4975512;28;20205;-82
2022/04/14 00:20:41;;;;;;;27.43;13.20;;;13.30;99.90;;;;;;4975995;28;20210;-82
2022/04/14 00:23:07;;;;;;;30.57;13.77;;;13.40;99.90;;;;;;4977266;28;20186;-83
2022/04/14 00:25:32;;;;;;;26.43;12.77;;;13.40;99.90;;;;;;4977701;28;20218;-82
2022/04/14 00:27:58;;;;;;;23.00;13.17;;;13.30;99.90;;;;;;4979361;28;20261;-83
2022/04/14 00:30:24;;;;;;;26.53;13.40;;;13.20;99.90;;;;;;4981369;28;20200;-83
2022/04/14 00:32:49;;;;;;;21.20;12.90;;;13.20;99.90;;;;;;4981367;28;20511;-83
2022/04/14 00:35:15;;;;;;;26.67;12.27;;;13.40;99.90;;;;;;4981133;28;20634;-83
2022/04/14 00:37:41;;;;;;;19.60;10.53;;;13.30;99.90;;;;;;4979887;28;20175;-82
2022/04/14 00:40:07;;;;;;;19.33;10.50;;;13.40;99.90;;;;;;4979661;28;20199;-82
2022/04/14 00:42:33;;;;;;;22.53;10.13;;;13.30;99.90;;;;;;4979171;28;20179;-81
2022/04/14 00:44:59;;;;;;;21.30;10.67;;;13.40;99.90;;;;;;4979352;28;20178;-82
2022/04/14 00:47:25;;;;;;;22.20;9.77;;;13.40;99.90;;;;;;4979896;28;20184;-82
2022/04/14 00:49:51;;;;;;;20.37;9.37;;;13.30;99.90;;;;;;4980095;28;20249;-82
2022/04/14 00:52:16;;;;;;;20.47;10.10;;;13.30;99.90;;;;;;5014060;23;20698;-79
2022/04/14 00:54:42;;;;;;;19.73;10.50;;;13.30;99.90;;;;;;5015998;28;20170;-79
2022/04/14 00:57:08;;;;;;;19.83;10.40;;;13.30;99.90;;;;;;5016403;28;20210;-79
2022/04/14 00:59:34;;;;;;;24.83;10.97;;;13.30;99.90;;;;;;5034063;28;20204;-79
2022/04/14 01:02:00;;;;;;;20.93;10.43;;;13.20;99.90;;;;;;5033571;28;20653;-79
2022/04/14 01:04:27;;;;;;;18.30;10.17;;;13.20;99.90;;;;;;5034270;28;20219;-79
2022/04/14 01:06:53;;;;;;;27.03;10.80;;;13.20;99.90;;;;;;5034503;28;20633;-79
2022/04/14 01:09:19;;;;;;;22.93;9.93;;;13.30;99.90;;;;;;5034617;28;20179;-79
2022/04/14 01:11:55;;;;;;;18.10;8.97;;;13.30;99.90;;;;;;5016013;28;20194;-79
2022/04/14 01:14:37;;;;;;;17.57;9.30;;;13.20;99.90;;;;;;5034130;28;20284;-78
2022/04/14 01:17:07;;;;;;;20.93;9.83;;;13.30;99.90;;;;;;5016919;28;20537;-79
2022/04/14 01:19:33;;;;;;;19.57;9.87;;;13.20;99.90;;;;;;5013761;28;20656;-79
2022/04/14 01:22:15;;;;;;;20.90;9.57;;;13.10;99.90;;;;;;5033654;28;20177;-79
2022/04/14 01:24:41;;;;;;;19.13;9.70;;;13.00;99.90;;;;;;5032136;28;20176;-79
2022/04/14 01:27:07;;;;;;;23.23;10.10;;;13.20;99.90;;;;;;5034238;28;20222;-79
2022/04/14 01:29:32;;;;;;;21.93;10.30;;;13.00;99.90;;;;;;5034253;28;20181;-79
2022/04/14 01:31:59;;;;;;;24.70;11.00;;;13.00;99.90;;;;;;5033389;28;20634;-79
2022/04/14 01:34:25;;;;;;;19.13;9.23;;;12.90;99.90;;;;;;5016087;28;20546;-80
2022/04/14 01:36:51;;;;;;;26.57;10.43;;;13.00;99.90;;;;;;5033754;28;20264;-79
2022/04/14 01:39:17;;;;;;;21.17;9.50;;;12.90;99.90;;;;;;5015768;28;20171;-79
2022/04/14 01:41:44;;;;;;;20.40;10.23;;;13.00;99.90;;;;;;5015593;28;20177;-80
2022/04/14 01:44:12;;;;;;;20.33;10.30;;;13.00;99.90;;;;;;5033656;28;20593;-79
2022/04/14 01:46:40;;;;;;;17.67;9.27;;;13.00;99.90;;;;;;5033776;28;20259;-79
2022/04/14 01:49:07;;;;;;;20.77;11.57;;;13.10;99.90;;;;;;5033656;28;20172;-79
2022/04/14 01:51:33;;;;;;;19.00;10.03;;;13.10;99.90;;;;;;5033070;28;20697;-79
2022/04/14 01:53:58;;;;;;;18.57;9.73;;;13.00;99.90;;;;;;5033763;28;20189;-79
2022/04/14 01:56:25;;;;;;;18.47;9.67;;;12.90;99.90;;;;;;5033696;28;20297;-79
2022/04/14 01:58:54;;;;;;;20.10;9.40;;;12.80;99.90;;;;;;5015872;28;20831;-79
2022/04/14 02:01:20;;;;;;;16.23;9.20;;;12.90;99.90;;;;;;5032715;28;20184;-79
2022/04/14 02:03:46;;;;;;;18.30;9.10;;;12.90;99.90;;;;;;5015072;28;20235;-79
2022/04/14 02:06:12;;;;;;;21.00;9.47;;;12.80;99.90;;;;;;5033350;28;20205;-79
2022/04/14 02:08:38;;;;;;;19.87;9.97;;;12.90;99.90;;;;;;5033867;28;20180;-79
2022/04/14 02:11:04;;;;;;;17.67;10.10;;;13.00;99.90;;;;;;5033207;28;20223;-79
2022/04/14 02:13:33;;;;;;;19.23;10.17;;;13.00;99.90;;;;;;5016080;28;20189;-79
2022/04/14 02:15:59;;;;;;;20.83;10.60;;;12.90;99.90;;;;;;5033869;28;20211;-79
2022/04/14 02:18:26;;;;;;;18.13;9.83;;;12.80;99.90;;;;;;5033552;28;20175;-78
2022/04/14 02:20:51;;;;;;;26.53;10.50;;;12.90;99.90;;;;;;5013194;28;20186;-78
2022/04/14 02:23:17;;;;;;;17.63;9.73;;;12.80;99.90;;;;;;5033194;28;20337;-79
2022/04/14 02:25:43;;;;;;;16.90;9.60;;;12.90;99.90;;;;;;5016217;28;20188;-78
2022/04/14 02:28:09;;;;;;;18.10;9.57;;;12.70;99.90;;;;;;5051233;28;20192;-78
2022/04/14 02:30:34;;;;;;;17.70;10.00;;;12.80;99.90;;;;;;5051637;28;20167;-78
2022/04/14 02:33:01;;;;;;;22.67;11.03;;;12.80;99.90;;;;;;5048059;28;20198;-79
2022/04/14 02:35:26;;;;;;;20.10;10.30;;;12.80;99.90;;;;;;5041002;28;20164;-79
2022/04/14 02:37:52;;;;;;;24.17;9.67;;;12.70;99.90;;;;;;5042059;28;20255;-78
2022/04/14 02:40:22;;;;;;;19.87;10.53;;;12.80;99.90;;;;;;5040758;28;20172;-79
2022/04/14 02:42:47;;;;;;;23.80;11.43;;;12.80;99.90;;;;;;5036114;28;20184;-79
2022/04/14 02:45:13;;;;;;;21.50;10.47;;;12.70;99.90;;;;;;5037199;28;20173;-79
2022/04/14 02:47:39;;;;;;;21.90;9.73;;;12.60;99.90;;;;;;5035363;28;20171;-79
2022/04/14 02:50:05;;;;;;;17.90;9.60;;;12.60;99.90;;;;;;5035765;28;20639;-79
2022/04/14 02:52:31;;;;;;;21.37;10.17;;;12.70;99.90;;;;;;5033531;28;20797;-81
2022/04/14 02:54:57;;;;;;;18.70;9.63;;;12.50;99.90;;;;;;5016965;28;20550;-81
2022/04/14 02:57:22;;;;;;;18.30;10.17;;;12.50;99.90;;;;;;5034691;28;20163;-79
2022/04/14 02:59:48;;;;;;;20.37;10.10;;;12.60;99.90;;;;;;5016901;28;20636;-79
2022/04/14 03:02:13;;;;;;;21.00;11.00;;;12.70;99.90;;;;;;5015940;28;20174;-79
2022/04/14 03:04:39;;;;;;;27.13;12.90;;;12.80;99.90;;;;;;5033703;28;20175;-79
2022/04/14 03:07:05;;;;;;;23.10;11.80;;;12.70;99.90;;;;;;5034164;28;20690;-79
2022/04/14 03:09:30;;;;;;;25.00;12.33;;;12.70;99.90;;;;;;5016794;28;20263;-78
2022/04/14 03:11:56;;;;;;;26.73;12.67;;;12.60;99.90;;;;;;5033856;28;20210;-78
2022/04/14 03:14:22;;;;;;;28.53;13.53;;;12.60;99.90;;;;;;5035680;28;20257;-79
2022/04/14 03:16:47;;;;;;;29.83;13.80;;;12.60;99.90;;;;;;5034809;28;20207;-80
2022/04/14 03:19:13;;;;;;;26.17;13.83;;;12.40;99.90;;;;;;5031697;28;20171;-80
2022/04/14 03:21:38;;;;;;;30.20;14.80;;;12.50;99.90;;;;;;5033892;28;20170;-80
2022/04/14 03:24:04;;;;;;;27.40;15.17;;;12.50;99.90;;;;;;5013946;28;20198;-78
2022/04/14 03:26:30;;;;;;;30.47;14.63;;;12.40;99.90;;;;;;5033973;28;20252;-80
2022/04/14 03:28:55;;;;;;;30.70;16.30;;;12.50;99.90;;;;;;5016312;28;20174;-80
2022/04/14 03:31:21;;;;;;;29.73;16.00;;;12.60;99.90;;;;;;5015211;28;20212;-81
2022/04/14 03:33:46;;;;;;;39.70;18.10;;;12.40;99.90;;;;;;5033812;28;20188;-78
2022/04/14 03:36:12;;;;;;;37.20;17.60;;;12.40;99.90;;;;;;5015911;28;20257;-81
2022/04/14 03:38:37;;;;;;;42.67;18.73;;;12.40;99.90;;;;;;5016450;28;20682;-80
2022/04/14 03:41:06;;;;;;;39.87;18.70;;;12.50;99.90;;;;;;5033521;28;20251;-79
2022/04/14 03:43:35;;;;;;;40.90;18.87;;;12.60;99.90;;;;;;5015903;28;20199;-79
2022/04/14 03:46:02;;;;;;;41.37;19.10;;;12.50;99.90;;;;;;5015627;28;20598;-78
2022/04/14 03:48:28;;;;;;;44.73;19.30;;;12.50;99.90;;;;;;5033469;28;20171;-80
2022/04/14 03:50:54;;;;;;;40.73;18.60;;;12.60;99.90;;;;;;5033906;28;20276;-80
2022/04/14 03:53:20;;;;;;;42.27;18.40;;;12.50;99.90;;;;;;5033202;28;20670;-79
2022/04/14 03:55:49;;;;;;;43.33;18.13;;;12.40;99.90;;;;;;5033201;28;20164;-80
2022/04/14 03:58:15;;;;;;;41.83;18.87;;;12.40;99.90;;;;;;5016114;28;20203;-78
2022/04/14 04:00:41;;;;;;;41.70;17.40;;;12.30;99.90;;;;;;5033278;28;20173;-77
2022/04/14 04:03:11;;;;;;;41.30;17.13;;;12.40;99.90;;;;;;5016694;28;20199;-77
2022/04/14 04:05:37;;;;;;;38.13;17.20;;;12.30;99.90;;;;;;5019283;28;20181;-81
2022/04/14 04:08:06;;;;;;;40.73;18.13;;;12.20;99.90;;;;;;5037450;28;20176;-78
2022/04/14 04:10:32;;;;;;;44.10;17.57;;;12.30;99.90;;;;;;5036974;28;20206;-79
2022/04/14 04:12:57;;;;;;;40.30;17.87;;;12.30;99.90;;;;;;5036095;28;20661;-78
2022/04/14 04:15:23;;;;;;;49.83;19.30;;;12.20;99.90;;;;;;5036821;28;20169;-78
2022/04/14 04:17:51;;;;;;;42.80;17.93;;;12.20;99.90;;;;;;5036677;28;20203;-78
2022/04/14 04:20:17;;;;;;;44.07;18.27;;;12.30;99.90;;;;;;5034390;28;20167;-79
2022/04/14 04:22:43;;;;;;;41.47;17.97;;;12.20;99.90;;;;;;5017988;28;20191;-79
2022/04/14 04:25:09;;;;;;;44.23;18.60;;;12.20;99.90;;;;;;5034420;28;20173;-78
2022/04/14 04:27:36;;;;;;;44.57;19.27;;;12.30;99.90;;;;;;5036116;28;20196;-78
2022/04/14 04:30:06;;;;;;;56.23;20.33;;;12.30;99.90;;;;;;5018790;28;20182;-80
2022/04/14 04:32:33;;;;;;;48.13;20.10;;;12.30;99.90;;;;;;5035581;28;20210;-80
2022/04/14 04:34:59;;;;;;;52.47;19.60;;;12.20;99.90;;;;;;5036128;28;20164;-79
2022/04/14 04:37:25;;;;;;;47.40;19.67;;;12.20;99.90;;;;;;5036508;28;20697;-80
2022/04/14 04:39:51;;;;;;;45.40;18.57;;;12.20;99.90;;;;;;5036604;28;20464;-80
2022/04/14 04:42:16;;;;;;;52.33;19.87;;;12.20;99.90;;;;;;5035777;28;20232;-79
2022/04/14 04:44:42;;;;;;;49.23;20.23;;;12.20;99.90;;;;;;5017483;28;20177;-79
2022/04/14 04:47:07;;;;;;;51.80;19.80;;;12.20;99.90;;;;;;5036091;28;20181;-80
2022/04/14 04:49:33;;;;;;;42.40;19.17;;;12.20;99.90;;;;;;5018266;28;20186;-80
2022/04/14 04:52:00;;;;;;;52.00;18.43;;;12.20;99.90;;;;;;5034874;28;20198;-79
2022/04/14 04:54:25;;;;;;;47.30;19.00;;;12.20;99.90;;;;;;5035713;28;20211;-80
2022/04/14 04:56:51;;;;;;;46.17;20.20;;;12.20;99.90;;;;;;5017886;28;20179;-80
2022/04/14 04:59:17;;;;;;;53.33;19.87;;;12.20;99.90;;;;;;5036110;28;20199;-79
2022/04/14 05:01:42;;;;;;;48.10;20.07;;;12.10;99.90;;;;;;5035152;28;20170;-78
2022/04/14 05:04:11;;;;;;;47.13;19.00;;;12.20;99.90;;;;;;5035637;28;20211;-79
2022/04/14 05:06:39;;;;;;;53.13;19.53;;;12.10;99.90;;;;;;5035743;28;20165;-79
2022/04/14 05:09:05;;;;;;;47.03;18.80;;;12.20;99.90;;;;;;5018417;28;20204;-80
2022/04/14 05:11:31;;;;;;;48.03;18.97;;;12.20;99.90;;;;;;5035608;28;20700;-80
2022/04/14 05:13:56;;;;;;;47.00;19.20;;;12.20;99.90;;;;;;5033811;28;20185;-79
2022/04/14 05:16:22;;;;;;;48.97;19.70;;;12.10;99.90;;;;;;5035573;28;20180;-80
2022/04/14 05:18:48;;;;;;;50.93;19.57;;;12.20;99.90;;;;;;5016378;28;20173;-79
2022/04/14 05:21:14;;;;;;;47.07;19.17;;;12.20;99.90;;;;;;5033435;28;20261;-79
2022/04/14 05:23:40;;;;;;;51.00;19.77;;;12.10;99.90;;;;;;5032346;28;20679;-80
2022/04/14 05:26:06;;;;;;;43.37;19.00;;;12.20;99.90;;;;;;5017305;28;20261;-80
2022/04/14 05:28:31;;;;;;;45.73;20.33;;;12.20;99.90;;;;;;5034941;28;20180;-80
2022/04/14 05:30:57;;;;;;;53.97;20.03;;;12.20;99.90;;;;;;5016974;28;20625;-80
2022/04/14 05:33:23;;;;;;;43.20;20.60;;;12.30;99.90;;;;;;5034443;28;20194;-79
2022/04/14 05:35:48;;;;;;;49.17;21.07;;;12.30;99.90;;;;;;5034620;28;20259;-79
2022/04/14 05:38:14;;;;;;;52.13;20.03;;;12.20;99.90;;;;;;5034540;28;20171;-79
2022/04/14 05:40:45;;;;;;;43.47;20.13;;;12.20;99.90;;;;;;5034817;28;20180;-79
2022/04/14 05:43:19;;;;;;;49.33;20.73;;;12.20;99.90;;;;;;5015970;28;20195;-79
2022/04/14 05:45:47;;;;;;;56.27;22.70;;;12.20;99.90;;;;;;5034508;28;20204;-79
2022/04/14 05:48:16;;;;;;;56.80;22.97;;;12.20;99.90;;;;;;5035181;28;20255;-79
2022/04/14 05:50:42;;;;;;;67.27;25.97;;;12.20;99.90;;;;;;5034754;28;20616;-79
2022/04/14 05:53:08;;;;;;;87.10;30.43;;;12.20;99.90;;;;;;5023783;28;20214;-79
2022/04/14 05:55:35;;;;;;;87.40;30.87;;;12.30;99.90;;;;;;5036143;28;20176;-79
2022/04/14 05:58:04;;;;;;;114.77;34.47;;;12.20;99.90;;;;;;5034706;28;20511;-79
2022/04/14 06:00:34;;;;;;;108.07;34.20;;;12.30;99.90;;;;;;5043149;28;20221;-79
2022/04/14 06:03:00;;;;;;;122.23;38.43;;;12.30;99.90;;;;;;5053636;28;20558;-79
2022/04/14 06:05:30;;;;;;;133.17;41.83;;;12.30;99.90;;;;;;5035928;28;20178;-80
2022/04/14 06:07:56;;;;;;;124.83;42.03;;;12.30;99.90;;;;;;5054136;28;20168;-79
2022/04/14 06:10:23;;;;;;;130.87;40.43;;;12.30;99.90;;;;;;5053942;28;20224;-79
2022/04/14 06:12:49;;;;;;;122.53;39.53;;;12.40;99.90;;;;;;5034835;28;20215;-79
2022/04/14 06:15:16;;;;;;;114.20;37.27;;;12.50;99.90;;;;;;5053269;28;20180;-79
2022/04/14 06:17:42;;;;;;;103.87;36.73;;;12.50;99.90;;;;;;5053461;28;20174;-79
2022/04/14 06:20:08;;;;;;;106.97;36.87;;;12.50;99.90;;;;;;5030661;28;20183;-79
2022/04/14 06:22:41;;;;;;;111.47;36.97;;;12.40;99.90;;;;;;5053028;28;20187;-78
2022/04/14 06:25:12;;;;;;;108.57;35.77;;;12.50;99.90;;;;;;5034980;28;20179;-79
2022/04/14 06:27:42;;;;;;;108.77;35.93;;;12.50;99.90;;;;;;5053249;28;20573;-79
2022/04/14 06:30:10;;;;;;;104.73;36.47;;;12.60;99.90;;;;;;5053255;28;20184;-79
2022/04/14 06:32:36;;;;;;;100.33;34.50;;;12.60;99.90;;;;;;5043304;28;20201;-77
2022/04/14 06:35:03;;;;;;;103.57;36.93;;;12.60;99.90;;;;;;5032239;28;20582;-78
2022/04/14 06:37:29;;;;;;;100.90;37.10;;;12.60;99.90;;;;;;5053924;28;20168;-77
2022/04/14 06:39:54;;;;;;;92.20;35.10;;;12.70;99.90;;;;;;5052901;28;20258;-78
2022/04/14 06:42:23;;;;;;;106.67;35.97;;;12.70;99.90;;;;;;5034511;28;20661;-77
2022/04/14 06:44:48;;;;;;;101.77;37.47;;;12.60;99.90;;;;;;5052422;28;20199;-78
2022/04/14 06:47:14;;;;;;;115.70;39.73;;;12.70;99.90;;;;;;5052528;28;20637;-79
2022/04/14 06:49:39;;;;;;;101.90;36.60;;;12.80;99.90;;;;;;5052984;28;20169;-80
2022/04/14 06:52:05;;;;;;;103.87;37.63;;;12.70;99.90;;;;;;5034192;28;20729;-79
2022/04/14 06:54:31;;;;;;;101.03;37.57;;;12.80;99.90;;;;;;5032921;28;20222;-78
2022/04/14 06:56:56;;;;;;;109.23;38.70;;;12.80;99.90;;;;;;5053022;28;20168;-80
2022/04/14 06:59:22;;;;;;;106.97;39.10;;;12.90;99.90;;;;;;5052935;28;20172;-78
2022/04/14 07:01:48;;;;;;;105.60;39.57;;;13.10;99.90;;;;;;5051528;28;20207;-81
2022/04/14 07:04:13;;;;;;;89.60;36.53;;;13.10;99.90;;;;;;5049066;28;20215;-79
2022/04/14 07:06:39;;;;;;;93.50;36.10;;;13.20;99.90;;;;;;5068379;22;20235;-83
2022/04/14 07:09:04;;;;;;;92.37;34.23;;;13.50;99.90;;;;;;5053866;28;20267;-82
2022/04/14 07:11:30;;;;;;;94.03;36.67;;;13.50;99.90;;;;;;5053369;28;20239;-83
2022/04/14 07:13:58;;;;;;;80.33;34.90;;;13.90;99.90;;;;;;5053708;28;20172;-83
2022/04/14 07:16:25;;;;;;;71.97;31.67;;;14.20;99.90;;;;;;5049680;28;20180;-85
2022/04/14 07:18:50;;;;;;;76.23;31.73;;;14.20;99.90;;;;;;5032915;28;20180;-82
2022/04/14 07:21:16;;;;;;;69.67;31.13;;;14.40;99.90;;;;;;5032951;28;20279;-81
2022/04/14 07:23:42;;;;;;;78.50;33.17;;;14.50;99.90;;;;;;5033970;28;20709;-81
2022/04/14 07:26:07;;;;;;;63.63;29.53;;;14.70;99.90;;;;;;5034318;28;20216;-83
2022/04/14 07:28:33;;;;;;;68.50;31.43;;;14.30;99.90;;;;;;5052033;28;20580;-83
2022/04/14 07:30:59;;;;;;;64.67;29.80;;;14.40;99.90;;;;;;5033911;28;20250;-83
2022/04/14 07:33:25;;;;;;;73.07;30.20;;;14.40;99.90;;;;;;5034027;28;20170;-83
2022/04/14 07:35:52;;;;;;;72.47;31.20;;;14.50;99.90;;;;;;5034228;28;20647;-83
2022/04/14 07:38:18;;;;;;;73.30;31.43;;;14.40;99.90;;;;;;5036134;28;20694;-83
2022/04/14 07:40:44;;;;;;;70.87;31.50;;;14.40;99.90;;;;;;5035898;28;20281;-84
2022/04/14 07:43:10;;;;;;;70.87;31.63;;;14.40;99.90;;;;;;5037558;28;20174;-84
2022/04/14 07:45:36;;;;;;;76.77;32.37;;;14.30;99.90;;;;;;5055838;28;20308;-85
2022/04/14 07:48:03;;;;;;;76.03;32.57;;;14.20;99.90;;;;;;5037971;28;20616;-82
2022/04/14 07:50:29;;;;;;;72.50;32.20;;;14.10;99.90;;;;;;5037606;28;20279;-85
2022/04/14 07:52:56;;;;;;;76.43;31.73;;;14.20;99.90;;;;;;5037543;28;20212;-83
2022/04/14 07:55:32;;;;;;;76.30;32.93;;;14.10;99.90;;;;;;5037841;28;20176;-83
2022/04/14 07:58:07;;;;;;;75.37;33.50;;;13.90;99.90;;;;;;5037557;28;20181;-84
2022/04/14 08:00:34;;;;;;;80.70;34.67;;;14.00;99.90;;;;;;5037888;28;20201;-82
2022/04/14 08:03:02;;;;;;;78.47;34.90;;;13.80;99.90;;;;;;5037393;28;20181;-83
2022/04/14 08:05:42;;;;;;;81.23;33.87;;;13.80;99.90;;;;;;5038348;28;20208;-80
2022/04/14 08:08:11;;;;;;;85.67;35.00;;;13.70;99.90;;;;;;5037983;28;20629;-81
2022/04/14 08:10:37;;;;;;;83.43;34.10;;;13.60;99.90;;;;;;5037820;28;20205;-80
2022/04/14 08:13:03;;;;;;;80.60;34.47;;;13.70;99.90;;;;;;5037878;28;20169;-81
2022/04/14 08:15:30;;;;;;;80.87;34.00;;;13.90;99.90;;;;;;5037728;28;20243;-83
2022/04/14 08:17:55;;;;;;;73.63;32.57;;;14.50;99.90;;;;;;5037525;28;20179;-82
2022/04/14 08:20:21;;;;;;;72.03;32.50;;;15.20;99.90;;;;;;5054979;28;20196;-82
2022/04/14 08:22:54;;;;;;;65.13;30.63;;;15.70;99.90;;;;;;5037506;28;20227;-80
2022/04/14 08:25:22;;;;;;;65.17;29.53;;;16.10;99.90;;;;;;5037493;28;20729;-83
2022/04/14 08:27:49;;;;;;;60.30;30.47;;;16.00;99.90;;;;;;5037961;28;20184;-83
2022/04/14 08:30:17;;;;;;;67.57;32.67;;;15.80;99.90;;;;;;5037096;28;20220;-81
2022/04/14 08:32:46;;;;;;;64.50;30.70;;;16.50;99.90;;;;;;5036801;28;20742;-82
2022/04/14 08:35:13;;;;;;;61.67;30.77;;;16.80;99.90;;;;;;5037273;28;20567;-81
2022/04/14 08:37:43;;;;;;;62.65;31.20;;;17.20;99.90;;;;;;5037900;28;20178;-81
2022/04/14 08:40:11;;;;;;;59.22;29.75;;;17.80;99.90;;;;;;5036841;28;20272;-82
2022/04/14 08:42:42;;;;;;;63.40;32.10;;;17.60;99.90;;;;;;5054419;28;20173;-81
2022/04/14 08:45:11;;;;;;;59.53;31.65;;;17.80;99.90;;;;;;5036886;28;20177;-80
2022/04/14 08:47:39;;;;;;;58.95;30.50;;;18.20;99.90;;;;;;5036968;28;20169;-84
2022/04/14 08:50:06;;;;;;;59.90;31.17;;;18.30;99.90;;;;;;5036571;28;20288;-82
2022/04/14 08:52:36;;;;;;;56.25;30.80;;;18.10;99.90;;;;;;5036552;28;20213;-82
2022/04/14 08:55:04;;;;;;;64.82;31.92;;;17.80;99.90;;;;;;5037101;28;20583;-82
2022/04/14 08:57:31;;;;;;;64.43;31.25;;;18.50;99.90;;;;;;5037009;28;20169;-82
2022/04/14 08:59:58;;;;;;;58.75;31.08;;;18.30;99.90;;;;;;5037035;28;20193;-83
2022/04/14 09:02:25;;;;;;;58.45;31.20;;;18.90;99.90;;;;;;5036874;28;20174;-82
2022/04/14 09:04:51;;;;;;;54.20;29.95;;;18.60;99.90;;;;;;5037018;28;20174;-81
2022/04/14 09:07:17;;;;;;;56.88;29.95;;;19.30;99.90;;;;;;5037460;28;20661;-83
2022/04/14 09:09:44;;;;;;;55.13;28.75;;;19.60;99.90;;;;;;5037326;28;20224;-83
2022/04/14 09:12:10;;;;;;;50.53;27.45;;;19.70;99.90;;;;;;5036698;28;20201;-84
2022/04/14 09:14:37;;;;;;;51.67;27.83;;;19.20;99.90;;;;;;5036938;28;20223;-82
2022/04/14 09:17:06;;;;;;;47.00;27.73;;;19.10;99.90;;;;;;5036561;28;20219;-82
2022/04/14 09:19:34;;;;;;;46.42;26.38;;;19.30;99.90;;;;;;5036018;28;20190;-83
2022/04/14 09:22:04;;;;;;;47.10;26.25;;;19.60;99.90;;;;;;5036970;28;20177;-82
2022/04/14 09:24:49;;;;;;;42.30;24.40;;;19.10;99.90;;;;;;5036539;28;20649;-83
2022/04/14 09:27:25;;;;;;;46.28;23.15;;;19.60;99.90;;;;;;5036856;28;20306;-83
2022/04/14 09:29:51;;;;;;;42.53;22.83;;;19.50;99.90;;;;;;5036392;28;20238;-80
2022/04/14 09:32:30;;;;;;;38.72;22.67;;;20.00;99.90;;;;;;5036117;28;20309;-82
2022/04/14 09:35:07;;;;;;;51.05;25.15;;;20.20;99.90;;;;;;5036346;28;20284;-81
2022/04/14 09:37:33;;;;;;;40.92;23.50;;;20.00;99.90;;;;;;5036660;28;20169;-82
2022/04/14 09:40:02;;;;;;;39.17;22.75;;;20.30;99.90;;;;;;5036362;28;20193;-83
2022/04/14 09:42:30;;;;;;;38.58;21.65;;;20.40;99.90;;;;;;5035958;28;20176;-82
2022/04/14 09:45:18;;;;;;;39.67;21.45;;;20.50;99.90;;;;;;5036249;28;20553;-82
2022/04/14 09:47:44;;;;;;;39.80;22.27;;;20.40;99.90;;;;;;5036118;28;20177;-83
2022/04/14 09:50:26;;;;;;;37.53;21.75;;;20.30;99.90;;;;;;5035603;28;20196;-81
2022/04/14 09:53:12;;;;;;;39.47;22.90;;;20.60;99.90;;;;;;5035864;28;20567;-83
2022/04/14 09:55:39;;;;;;;37.03;20.60;;;20.70;99.90;;;;;;5036570;28;20226;-81
2022/04/14 09:58:16;;;;;;;35.70;20.77;;;21.00;99.90;;;;;;5036074;28;20179;-83
2022/04/14 10:00:45;;;;;;;31.70;18.95;;;20.50;99.90;;;;;;5035481;28;20195;-82
2022/04/14 10:03:23;;;;;;;32.40;19.60;;;21.00;99.90;;;;;;5036048;28;20277;-83
2022/04/14 10:05:52;;;;;;;33.70;20.00;;;20.70;99.90;;;;;;5035662;28;20177;-83
2022/04/14 10:08:18;;;;;;;30.40;19.10;;;21.20;99.90;;;;;;5036384;28;20508;-82
2022/04/14 10:10:46;;;;;;;32.20;19.25;;;21.50;99.90;;;;;;5035656;28;20193;-80
2022/04/14 10:13:17;;;;;;;29.33;17.85;;;21.60;99.90;;;;;;5035977;28;20177;-84
2022/04/14 10:15:48;;;;;;;32.92;20.17;;;21.90;99.90;;;;;;5035416;28;20169;-83
2022/04/14 10:18:16;;;;;;;29.25;17.88;;;22.00;99.70;;;;;;5036609;28;20643;-84
2022/04/14 10:20:44;;;;;;;31.33;17.92;;;21.40;99.00;;;;;;5035840;28;20195;-84
2022/04/14 10:23:13;;;;;;;31.48;18.65;;;21.20;98.00;;;;;;5053239;28;20637;-83
2022/04/14 10:25:40;;;;;;;32.08;17.65;;;21.50;97.00;;;;;;5035537;28;20181;-83
2022/04/14 10:28:13;;;;;;;28.38;16.25;;;21.60;98.30;;;;;;5035829;28;20174;-84
2022/04/14 10:30:44;;;;;;;34.67;17.17;;;21.30;97.60;;;;;;5035934;28;20193;-84
2022/04/14 10:33:10;;;;;;;28.90;16.55;;;21.30;97.50;;;;;;5035794;28;20169;-81
2022/04/14 10:35:36;;;;;;;27.40;14.90;;;21.70;97.30;;;;;;5035481;28;20187;-85
2022/04/14 10:38:11;;;;;;;28.15;16.95;;;22.50;93.80;;;;;;5035660;28;20173;-83
2022/04/14 10:40:43;;;;;;;28.70;16.90;;;22.80;93.10;;;;;;5035678;28;20189;-84
2022/04/14 10:43:12;;;;;;;30.45;16.50;;;22.10;93.60;;;;;;5053864;28;20154;-84
2022/04/14 10:45:53;;;;;;;24.38;14.55;;;21.10;94.60;;;;;;5035011;28;20173;-83
2022/04/14 10:48:31;;;;;;;28.58;16.45;;;21.20;94.60;;;;;;5036466;28;20180;-84
2022/04/14 10:51:28;;;;;;;28.55;16.75;;;21.30;95.30;;;;;;5033961;28;20562;-81
2022/04/14 10:54:04;;;;;;;24.98;15.98;;;21.40;94.20;;;;;;5053488;28;20189;-85
2022/04/14 10:56:44;;;;;;;21.90;13.00;;;21.60;94.70;;;;;;5035462;28;20715;-81
2022/04/14 10:59:41;;;;;;;20.83;10.50;;;21.80;94.70;;;;;;5035193;28;20177;-84
2022/04/14 11:02:07;;;;;;;15.57;8.63;;;21.10;94.60;;;;;;5025103;28;20272;-83
2022/04/14 11:04:32;;;;;;;17.77;9.73;;;21.00;94.60;;;;;;5035519;28;20177;-83
2022/04/14 11:07:01;;;;;;;17.80;9.57;;;21.20;94.30;;;;;;5034914;28;20195;-84
2022/04/14 11:09:41;;;;;;;17.33;9.98;;;20.60;93.10;;;;;;5034798;28;20197;-80
2022/04/14 11:12:14;;;;;;;19.25;10.43;;;20.00;94.60;;;;;;5034446;28;20208;-81
2022/04/14 11:14:44;;;;;;;18.95;10.15;;;20.30;95.30;;;;;;5034762;28;20177;-83
2022/04/14 11:17:40;;;;;;;17.65;10.27;;;20.00;94.80;;;;;;5034783;28;20170;-82
2022/04/14 11:20:20;;;;;;;19.23;10.07;;;20.40;95.60;;;;;;5034634;28;20197;-80
2022/04/14 11:23:06;;;;;;;16.88;9.88;;;21.10;93.90;;;;;;5035785;28;20200;-83
2022/04/14 11:26:01;;;;;;;17.52;10.52;;;20.70;93.80;;;;;;5035903;28;20173;-82
2022/04/14 11:28:36;;;;;;;15.57;8.63;;;21.10;93.60;;;;;;5052251;28;20177;-81
2022/04/14 11:31:05;;;;;;;16.27;8.98;;;21.20;93.50;;;;;;5034410;28;20201;-83
2022/04/14 11:33:30;;;;;;;15.90;8.90;;;21.00;93.90;;;;;;5034601;28;20653;-83
2022/04/14 11:36:16;;;;;;;16.80;8.60;;;20.90;93.60;;;;;;5034562;28;20441;-83
2022/04/14 11:39:06;;;;;;;14.23;7.90;;;21.60;92.90;;;;;;5034605;28;20177;-83
2022/04/14 11:41:44;;;;;;;14.93;8.23;;;20.70;92.40;;;;;;5034401;28;20231;-81
2022/04/14 11:44:18;;;;;;;15.25;8.75;;;20.50;93.10;;;;;;5034267;28;20176;-84
2022/04/14 11:46:48;;;;;;;16.10;9.07;;;20.60;93.50;;;;;;5034515;28;20632;-83
2022/04/14 11:49:19;;;;;;;16.70;8.95;;;20.90;93.20;;;;;;5034235;28;20553;-81
2022/04/14 11:51:50;;;;;;;17.63;9.00;;;21.60;93.80;;;;;;5033466;28;20209;-82
2022/04/14 11:54:30;;;;;;;17.67;10.10;;;21.30;92.50;;;;;;5034140;28;20172;-82
2022/04/14 11:56:58;;;;;;;17.38;9.80;;;20.40;93.70;;;;;;5052082;28;20197;-82
2022/04/14 11:59:32;;;;;;;16.73;8.68;;;20.10;93.90;;;;;;5034087;28;20200;-82
2022/04/14 12:02:04;;;;;;;19.67;9.90;;;19.90;94.10;;;;;;5033996;28;20181;-82
2022/04/14 12:04:40;;;;;;;17.23;9.10;;;19.90;94.30;;;;;;5034698;28;20200;-83
2022/04/14 12:07:06;;;;;;;16.50;8.65;;;20.40;94.30;;;;;;5036949;28;20239;-82
2022/04/14 12:09:32;;;;;;;16.77;8.60;;;20.30;93.40;;;;;;5034934;28;20193;-82
2022/04/14 12:12:12;;;;;;;15.15;8.60;;;19.90;93.40;;;;;;5035148;28;20198;-82
2022/04/14 12:14:52;;;;;;;17.33;9.05;;;19.80;94.10;;;;;;5033974;28;20173;-83
2022/04/14 12:17:23;;;;;;;17.33;9.13;;;19.90;94.00;;;;;;5034289;28;20223;-81
2022/04/14 12:20:00;;;;;;;14.15;8.77;;;19.90;94.40;;;;;;5034285;28;20562;-81
2022/04/14 12:22:29;;;;;;;16.83;9.10;;;19.40;94.90;;;;;;5034685;28;20169;-80
2022/04/14 12:24:57;;;;;;;14.25;8.45;;;19.00;94.70;;;;;;5036983;28;20170;-83
2022/04/14 12:27:35;;;;;;;16.33;8.75;;;19.00;95.30;;;;;;5038174;28;20719;-81
2022/04/14 12:30:11;;;;;;;17.03;9.03;;;18.80;95.70;;;;;;5038424;28;20193;-81
2022/04/14 12:32:37;;;;;;;17.08;9.20;;;18.80;96.50;;;;;;5037512;28;20676;-83
2022/04/14 12:35:06;;;;;;;18.92;10.00;;;19.00;96.30;;;;;;5037728;28;20174;-82